sensor_id;sensor_type;location;lat;lon;timestamp;temperature;humidity
20839;DHT22;10580;51.092;6.828;2022-12-17T00:00:51;-0.80;99.90
20839;DHT22;10580;51.092;6.828;2022-12-17T00:03:35;-0.80;99.90
20839;DHT22;10580;51.092;6.828;2022-12-17T00:06:19;-0.80;99.90
20839;DHT22;10580;51.092;6.828;2022-12-17T00:09:03;-0.80;99.90
20839;DHT22;10580;51.092;6.828;2022-12-17T00:11:49;-0.80;99.90
20839;DHT22;10580;51.092;6.828;2022-12-17T00:14:33;-0.80;99.90
20839;DHT22;10580;51.092;6.828;2022-12-17T00:17:17;-0.70;99.90
20839;DHT22;10580;51.092;6.828;2022-12-17T00:20:02;-0.80;99.90
20839;DHT22;10580;51.092;6.828;2022-12-17T00:22:45;-0.70;99.90
20839;DHT22;10580;51.092;6.828;2022-12-17T00:25:30;-0.70;99.90
20839;DHT22;10580;51.092;6.828;2022-12-17T00:28:14;-0.70;99.90
20839;DHT22;10580;51.092;6.828;2022-12-17T00:30:58;-0.70;99.90
20839;DHT22;10580;51.092;6.828;2022-12-17T00:33:42;-0.60;99.90
20839;DHT22;10580;51.092;6.828;2022-12-17T00:36:26;-0.70;99.90
20839;DHT22;10580;51.092;6.828;2022-12-17T00:39:11;-0.60;99.90
20839;DHT22;10580;51.092;6.828;2022-12-17T00:41:55;-0.60;99.90
20839;DHT22;10580;51.092;6.828;2022-12-17T00:44:39;-0.60;99.90
20839;DHT22;10580;51.092;6.828;2022-12-17T00:47:24;-0.60;99.90
20839;DHT22;10580;51.092;6.828;2022-12-17T00:50:08;-0.60;99.90
20839;DHT22;10580;51.092;6.828;2022-12-17T00:52:53;-0.50;99.90
20839;DHT22;10580;51.092;6.828;2022-12-17T00:55:37;-0.50;99.90
20839;DHT22;10580;51.092;6.828;2022-12-17T00:58:21;-0.50;99.90
20839;DHT22;10580;51.092;6.828;2022-12-17T01:01:06;-0.60;99.90
20839;DHT22;10580;51.092;6.828;2022-12-17T01:03:50;-0.60;99.90
20839;DHT22;10580;51.092;6.828;2022-12-17T01:06:34;-0.70;99.90
20839;DHT22;10580;51.092;6.828;2022-12-17T01:09:18;-0.60;99.90
20839;DHT22;10580;51.092;6.828;2022-12-17T01:12:02;-0.60;99.90
20839;DHT22;10580;51.092;6.828;2022-12-17T01:14:46;-0.60;99.90
20839;DHT22;10580;51.092;6.828;2022-12-17T01:17:30;-0.50;99.90
20839;DHT22;10580;51.092;6.828;2022-12-17T01:20:14;-0.50;99.90
20839;DHT22;10580;51.092;6.828;2022-12-17T01:23:06;-0.60;99.90
20839;DHT22;10580;51.092;6.828;2022-12-17T01:25:54;-0.70;99.90
20839;DHT22;10580;51.092;6.828;2022-12-17T01:28:39;-0.70;99.90
20839;DHT22;10580;51.092;6.828;2022-12-17T01:31:23;-0.70;99.90
20839;DHT22;10580;51.092;6.828;2022-12-17T01:34:07;-0.70;99.90
20839;DHT22;10580;51.092;6.828;2022-12-17T01:36:51;-0.80;99.90
20839;DHT22;10580;51.092;6.828;2022-12-17T01:39:35;-0.90;99.90
20839;DHT22;10580;51.092;6.828;2022-12-17T01:42:20;-0.80;99.90
20839;DHT22;10580;51.092;6.828;2022-12-17T01:45:07;-0.70;99.90
20839;DHT22;10580;51.092;6.828;2022-12-17T01:48:00;-0.70;99.90
20839;DHT22;10580;51.092;6.828;2022-12-17T01:50:49;-0.70;99.90
20839;DHT22;10580;51.092;6.828;2022-12-17T01:53:37;-0.60;99.90
20839;DHT22;10580;51.092;6.828;2022-12-17T01:56:22;-0.50;99.90
20839;DHT22;10580;51.092;6.828;2022-12-17T01:59:07;-0.50;99.90
20839;DHT22;10580;51.092;6.828;2022-12-17T02:01:52;-0.50;99.90
20839;DHT22;10580;51.092;6.828;2022-12-17T02:04:36;-0.50;99.90
20839;DHT22;10580;51.092;6.828;2022-12-17T02:13:40;-0.50;99.90
20839;DHT22;10580;51.092;6.828;2022-12-17T02:16:30;-0.50;99.90
20839;DHT22;10580;51.092;6.828;2022-12-17T02:22:32;-0.50;99.90
20839;DHT22;10580;51.092;6.828;2022-12-17T02:25:31;-0.60;99.90
20839;DHT22;10580;51.092;6.828;2022-12-17T02:28:19;-0.60;99.90
20839;DHT22;10580;51.092;6.828;2022-12-17T02:31:05;-0.70;99.90
20839;DHT22;10580;51.092;6.828;2022-12-17T02:33:50;-0.70;99.90
20839;DHT22;10580;51.092;6.828;2022-12-17T02:36:35;-0.70;99.90
20839;DHT22;10580;51.092;6.828;2022-12-17T02:39:19;-0.70;99.90
20839;DHT22;10580;51.092;6.828;2022-12-17T02:42:04;-0.70;99.90
20839;DHT22;10580;51.092;6.828;2022-12-17T02:44:48;-0.70;99.90
20839;DHT22;10580;51.092;6.828;2022-12-17T02:47:33;-0.70;99.90
20839;DHT22;10580;51.092;6.828;2022-12-17T02:50:18;-0.70;99.90
20839;DHT22;10580;51.092;6.828;2022-12-17T02:53:03;-0.70;99.90
20839;DHT22;10580;51.092;6.828;2022-12-17T02:55:47;-0.70;99.90
20839;DHT22;10580;51.092;6.828;2022-12-17T02:58:31;-0.70;99.90
20839;DHT22;10580;51.092;6.828;2022-12-17T03:01:15;-0.70;99.90
20839;DHT22;10580;51.092;6.828;2022-12-17T03:03:59;-0.70;99.90
20839;DHT22;10580;51.092;6.828;2022-12-17T03:06:43;-0.70;99.90
20839;DHT22;10580;51.092;6.828;2022-12-17T03:09:28;-0.70;99.90
20839;DHT22;10580;51.092;6.828;2022-12-17T03:12:12;-0.60;99.90
20839;DHT22;10580;51.092;6.828;2022-12-17T03:14:56;-0.70;99.90
20839;DHT22;10580;51.092;6.828;2022-12-17T03:17:40;-0.70;99.90
20839;DHT22;10580;51.092;6.828;2022-12-17T03:20:24;-0.70;99.90
20839;DHT22;10580;51.092;6.828;2022-12-17T03:23:10;-0.70;99.90
20839;DHT22;10580;51.092;6.828;2022-12-17T03:25:59;-0.70;99.90
20839;DHT22;10580;51.092;6.828;2022-12-17T03:28:43;-0.70;99.90
20839;DHT22;10580;51.092;6.828;2022-12-17T03:31:27;-0.70;99.90
20839;DHT22;10580;51.092;6.828;2022-12-17T03:34:11;-0.70;99.90
20839;DHT22;10580;51.092;6.828;2022-12-17T03:36:55;-0.70;99.90
20839;DHT22;10580;51.092;6.828;2022-12-17T03:39:39;-0.70;99.90
20839;DHT22;10580;51.092;6.828;2022-12-17T03:42:23;-0.70;99.90
20839;DHT22;10580;51.092;6.828;2022-12-17T03:45:07;-0.70;99.90
20839;DHT22;10580;51.092;6.828;2022-12-17T03:48:03;-0.70;99.90
20839;DHT22;10580;51.092;6.828;2022-12-17T03:50:49;-0.70;99.90
20839;DHT22;10580;51.092;6.828;2022-12-17T03:53:34;-0.70;99.90
20839;DHT22;10580;51.092;6.828;2022-12-17T03:56:18;-0.70;99.90
20839;DHT22;10580;51.092;6.828;2022-12-17T03:59:02;-0.80;99.90
20839;DHT22;10580;51.092;6.828;2022-12-17T04:01:45;-0.70;99.90
20839;DHT22;10580;51.092;6.828;2022-12-17T04:04:30;-0.70;99.90
20839;DHT22;10580;51.092;6.828;2022-12-17T04:07:24;-0.70;99.90
20839;DHT22;10580;51.092;6.828;2022-12-17T04:10:08;-0.80;99.90
20839;DHT22;10580;51.092;6.828;2022-12-17T04:12:53;-0.80;99.90
20839;DHT22;10580;51.092;6.828;2022-12-17T04:15:36;-0.80;99.90
20839;DHT22;10580;51.092;6.828;2022-12-17T04:18:21;-0.80;99.90
20839;DHT22;10580;51.092;6.828;2022-12-17T04:21:05;-0.80;99.90
20839;DHT22;10580;51.092;6.828;2022-12-17T04:23:49;-0.70;99.90
20839;DHT22;10580;51.092;6.828;2022-12-17T04:26:33;-0.80;99.90
20839;DHT22;10580;51.092;6.828;2022-12-17T04:29:17;-0.80;99.90
20839;DHT22;10580;51.092;6.828;2022-12-17T04:32:01;-0.80;99.90
20839;DHT22;10580;51.092;6.828;2022-12-17T04:34:45;-0.80;99.90
20839;DHT22;10580;51.092;6.828;2022-12-17T04:37:29;-0.80;99.90
20839;DHT22;10580;51.092;6.828;2022-12-17T04:40:13;-0.90;99.90
20839;DHT22;10580;51.092;6.828;2022-12-17T04:43:07;-0.80;99.90
20839;DHT22;10580;51.092;6.828;2022-12-17T04:45:52;-0.80;99.90
20839;DHT22;10580;51.092;6.828;2022-12-17T04:48:36;-0.80;99.90
20839;DHT22;10580;51.092;6.828;2022-12-17T04:51:20;-0.90;99.90
20839;DHT22;10580;51.092;6.828;2022-12-17T04:54:05;-0.90;99.90
20839;DHT22;10580;51.092;6.828;2022-12-17T04:56:52;-1.00;99.90
20839;DHT22;10580;51.092;6.828;2022-12-17T04:59:36;-1.00;99.90
20839;DHT22;10580;51.092;6.828;2022-12-17T05:02:20;-1.00;99.90
20839;DHT22;10580;51.092;6.828;2022-12-17T05:05:05;-1.00;99.90
20839;DHT22;10580;51.092;6.828;2022-12-17T05:07:53;-1.00;99.90
20839;DHT22;10580;51.092;6.828;2022-12-17T05:10:38;-1.10;99.90
20839;DHT22;10580;51.092;6.828;2022-12-17T05:13:22;-1.20;99.90
20839;DHT22;10580;51.092;6.828;2022-12-17T05:16:07;-1.20;99.90
20839;DHT22;10580;51.092;6.828;2022-12-17T05:18:51;-1.30;99.90
20839;DHT22;10580;51.092;6.828;2022-12-17T05:21:35;-1.40;99.90
20839;DHT22;10580;51.092;6.828;2022-12-17T05:24:19;-1.40;99.90
20839;DHT22;10580;51.092;6.828;2022-12-17T05:27:03;-1.40;99.90
20839;DHT22;10580;51.092;6.828;2022-12-17T05:29:47;-1.50;99.90
20839;DHT22;10580;51.092;6.828;2022-12-17T05:32:31;-1.50;99.90
20839;DHT22;10580;51.092;6.828;2022-12-17T05:35:15;-1.60;99.90
20839;DHT22;10580;51.092;6.828;2022-12-17T05:38:07;-1.60;99.90
20839;DHT22;10580;51.092;6.828;2022-12-17T05:40:56;-1.60;99.90
20839;DHT22;10580;51.092;6.828;2022-12-17T05:43:40;-1.60;99.90
20839;DHT22;10580;51.092;6.828;2022-12-17T05:46:25;-1.70;99.90
20839;DHT22;10580;51.092;6.828;2022-12-17T05:49:09;-1.80;99.90
20839;DHT22;10580;51.092;6.828;2022-12-17T05:51:53;-1.80;99.90
20839;DHT22;10580;51.092;6.828;2022-12-17T05:54:37;-1.70;99.90
20839;DHT22;10580;51.092;6.828;2022-12-17T05:57:21;-1.80;99.90
20839;DHT22;10580;51.092;6.828;2022-12-17T06:00:06;-1.90;99.90
20839;DHT22;10580;51.092;6.828;2022-12-17T06:03:02;-2.00;99.90
20839;DHT22;10580;51.092;6.828;2022-12-17T06:05:47;-2.00;99.90
20839;DHT22;10580;51.092;6.828;2022-12-17T06:08:31;-2.10;99.90
20839;DHT22;10580;51.092;6.828;2022-12-17T06:11:15;-2.10;99.90
20839;DHT22;10580;51.092;6.828;2022-12-17T06:13:59;-2.20;99.90
20839;DHT22;10580;51.092;6.828;2022-12-17T06:16:43;-2.20;99.90
20839;DHT22;10580;51.092;6.828;2022-12-17T06:19:27;-2.20;99.90
20839;DHT22;10580;51.092;6.828;2022-12-17T06:22:11;-2.30;99.90
20839;DHT22;10580;51.092;6.828;2022-12-17T06:24:55;-2.30;99.90
20839;DHT22;10580;51.092;6.828;2022-12-17T06:27:39;-2.40;99.90
20839;DHT22;10580;51.092;6.828;2022-12-17T06:30:23;-2.40;99.90
20839;DHT22;10580;51.092;6.828;2022-12-17T06:33:09;-2.50;99.90
20839;DHT22;10580;51.092;6.828;2022-12-17T06:35:55;-2.50;99.90
20839;DHT22;10580;51.092;6.828;2022-12-17T06:38:40;-2.60;99.90
20839;DHT22;10580;51.092;6.828;2022-12-17T06:41:24;-2.60;99.90
20839;DHT22;10580;51.092;6.828;2022-12-17T06:44:08;-2.70;99.90
20839;DHT22;10580;51.092;6.828;2022-12-17T06:46:52;-2.70;99.90
20839;DHT22;10580;51.092;6.828;2022-12-17T06:49:36;-2.80;99.90
20839;DHT22;10580;51.092;6.828;2022-12-17T06:52:20;-2.70;99.90
20839;DHT22;10580;51.092;6.828;2022-12-17T06:55:05;-2.80;99.90
20839;DHT22;10580;51.092;6.828;2022-12-17T06:57:58;-2.70;99.90
20839;DHT22;10580;51.092;6.828;2022-12-17T07:00:42;-2.80;99.90
20839;DHT22;10580;51.092;6.828;2022-12-17T07:03:26;-2.80;99.90
20839;DHT22;10580;51.092;6.828;2022-12-17T07:06:10;-2.80;99.90
20839;DHT22;10580;51.092;6.828;2022-12-17T07:08:54;-2.80;99.90
20839;DHT22;10580;51.092;6.828;2022-12-17T07:11:43;-2.90;99.90
20839;DHT22;10580;51.092;6.828;2022-12-17T07:14:27;-2.80;99.90
20839;DHT22;10580;51.092;6.828;2022-12-17T07:17:11;-2.80;99.90
20839;DHT22;10580;51.092;6.828;2022-12-17T07:19:55;-3.00;99.90
20839;DHT22;10580;51.092;6.828;2022-12-17T07:22:39;-3.00;99.90
20839;DHT22;10580;51.092;6.828;2022-12-17T07:25:23;-3.00;99.90
20839;DHT22;10580;51.092;6.828;2022-12-17T07:28:08;-3.10;99.90
20839;DHT22;10580;51.092;6.828;2022-12-17T07:30:52;-3.10;99.90
20839;DHT22;10580;51.092;6.828;2022-12-17T07:33:38;-3.10;99.90
20839;DHT22;10580;51.092;6.828;2022-12-17T07:36:22;-3.20;99.90
20839;DHT22;10580;51.092;6.828;2022-12-17T07:39:06;-3.30;99.90
20839;DHT22;10580;51.092;6.828;2022-12-17T07:41:50;-3.40;99.90
20839;DHT22;10580;51.092;6.828;2022-12-17T07:44:34;-3.40;99.90
20839;DHT22;10580;51.092;6.828;2022-12-17T07:47:18;-3.40;99.90
20839;DHT22;10580;51.092;6.828;2022-12-17T07:50:02;-3.50;99.90
20839;DHT22;10580;51.092;6.828;2022-12-17T07:52:46;-3.50;99.90
20839;DHT22;10580;51.092;6.828;2022-12-17T07:55:30;-3.60;99.90
20839;DHT22;10580;51.092;6.828;2022-12-17T07:58:14;-3.70;99.90
20839;DHT22;10580;51.092;6.828;2022-12-17T08:00:59;-3.70;99.90
20839;DHT22;10580;51.092;6.828;2022-12-17T08:03:43;-3.70;99.90
20839;DHT22;10580;51.092;6.828;2022-12-17T08:06:27;-3.80;99.90
20839;DHT22;10580;51.092;6.828;2022-12-17T08:09:11;-3.80;99.90
20839;DHT22;10580;51.092;6.828;2022-12-17T08:11:55;-3.90;99.90
20839;DHT22;10580;51.092;6.828;2022-12-17T08:14:39;-3.90;99.90
20839;DHT22;10580;51.092;6.828;2022-12-17T08:17:23;-3.90;99.90
20839;DHT22;10580;51.092;6.828;2022-12-17T08:20:07;-4.00;99.90
20839;DHT22;10580;51.092;6.828;2022-12-17T08:22:52;-3.90;99.90
20839;DHT22;10580;51.092;6.828;2022-12-17T08:25:36;-3.90;99.90
20839;DHT22;10580;51.092;6.828;2022-12-17T08:28:20;-3.90;99.90
20839;DHT22;10580;51.092;6.828;2022-12-17T08:31:04;-3.90;99.90
20839;DHT22;10580;51.092;6.828;2022-12-17T08:33:48;-4.00;99.90
20839;DHT22;10580;51.092;6.828;2022-12-17T08:36:32;-4.10;99.90
20839;DHT22;10580;51.092;6.828;2022-12-17T08:39:16;-4.20;99.90
20839;DHT22;10580;51.092;6.828;2022-12-17T08:42:00;-4.20;99.90
20839;DHT22;10580;51.092;6.828;2022-12-17T08:44:44;-4.30;99.90
20839;DHT22;10580;51.092;6.828;2022-12-17T08:47:28;-4.30;99.90
20839;DHT22;10580;51.092;6.828;2022-12-17T08:50:12;-4.20;99.90
20839;DHT22;10580;51.092;6.828;2022-12-17T08:53:00;-4.20;99.90
20839;DHT22;10580;51.092;6.828;2022-12-17T08:55:45;-4.20;99.90
20839;DHT22;10580;51.092;6.828;2022-12-17T08:58:30;-4.30;99.90
20839;DHT22;10580;51.092;6.828;2022-12-17T09:01:14;-4.50;99.90
20839;DHT22;10580;51.092;6.828;2022-12-17T09:03:58;-4.60;99.90
20839;DHT22;10580;51.092;6.828;2022-12-17T09:06:42;-4.50;99.90
20839;DHT22;10580;51.092;6.828;2022-12-17T09:09:26;-4.50;99.90
20839;DHT22;10580;51.092;6.828;2022-12-17T09:12:10;-4.60;99.90
20839;DHT22;10580;51.092;6.828;2022-12-17T09:14:57;-4.60;99.90
20839;DHT22;10580;51.092;6.828;2022-12-17T09:17:53;-4.50;99.90
20839;DHT22;10580;51.092;6.828;2022-12-17T09:20:37;-4.40;99.90
20839;DHT22;10580;51.092;6.828;2022-12-17T09:23:21;-4.40;99.90
20839;DHT22;10580;51.092;6.828;2022-12-17T09:26:06;-4.30;99.90
20839;DHT22;10580;51.092;6.828;2022-12-17T09:28:50;-4.30;99.90
20839;DHT22;10580;51.092;6.828;2022-12-17T09:31:34;-4.30;99.90
20839;DHT22;10580;51.092;6.828;2022-12-17T09:34:18;-4.20;99.90
20839;DHT22;10580;51.092;6.828;2022-12-17T09:37:03;-4.30;99.90
20839;DHT22;10580;51.092;6.828;2022-12-17T09:39:48;-4.20;99.90
20839;DHT22;10580;51.092;6.828;2022-12-17T09:45:37;-4.10;99.90
20839;DHT22;10580;51.092;6.828;2022-12-17T09:48:33;-4.20;99.90
20839;DHT22;10580;51.092;6.828;2022-12-17T09:51:21;-4.20;99.90
20839;DHT22;10580;51.092;6.828;2022-12-17T09:54:09;-4.10;99.90
20839;DHT22;10580;51.092;6.828;2022-12-17T09:56:55;-4.10;99.90
20839;DHT22;10580;51.092;6.828;2022-12-17T09:59:39;-4.10;99.90
20839;DHT22;10580;51.092;6.828;2022-12-17T10:02:25;-4.10;99.90
20839;DHT22;10580;51.092;6.828;2022-12-17T10:05:30;-4.00;99.90
20839;DHT22;10580;51.092;6.828;2022-12-17T10:08:18;-3.90;99.90
20839;DHT22;10580;51.092;6.828;2022-12-17T10:11:21;-3.90;99.90
20839;DHT22;10580;51.092;6.828;2022-12-17T10:14:25;-3.80;99.90
20839;DHT22;10580;51.092;6.828;2022-12-17T10:17:24;-3.80;99.90
20839;DHT22;10580;51.092;6.828;2022-12-17T10:20:29;-3.80;99.90
20839;DHT22;10580;51.092;6.828;2022-12-17T10:23:31;-3.70;99.90
20839;DHT22;10580;51.092;6.828;2022-12-17T10:29:08;-3.60;99.90
20839;DHT22;10580;51.092;6.828;2022-12-17T10:31:54;-3.60;99.90
20839;DHT22;10580;51.092;6.828;2022-12-17T10:34:39;-3.50;99.90
20839;DHT22;10580;51.092;6.828;2022-12-17T10:37:31;-3.40;99.90
20839;DHT22;10580;51.092;6.828;2022-12-17T10:40:26;-3.40;99.90
20839;DHT22;10580;51.092;6.828;2022-12-17T10:43:32;-3.30;99.90
20839;DHT22;10580;51.092;6.828;2022-12-17T10:46:31;-3.30;99.90
20839;DHT22;10580;51.092;6.828;2022-12-17T10:49:22;-3.30;99.90
20839;DHT22;10580;51.092;6.828;2022-12-17T10:52:24;-3.20;99.90
20839;DHT22;10580;51.092;6.828;2022-12-17T10:55:28;-3.20;99.90
20839;DHT22;10580;51.092;6.828;2022-12-17T11:01:06;-3.20;99.90
20839;DHT22;10580;51.092;6.828;2022-12-17T11:04:01;-3.30;99.90
20839;DHT22;10580;51.092;6.828;2022-12-17T11:06:49;-3.30;99.90
20839;DHT22;10580;51.092;6.828;2022-12-17T11:12:25;-3.30;99.90
20839;DHT22;10580;51.092;6.828;2022-12-17T11:15:21;-3.20;99.90
20839;DHT22;10580;51.092;6.828;2022-12-17T11:18:14;-3.10;99.90
20839;DHT22;10580;51.092;6.828;2022-12-17T11:21:10;-3.00;99.90
20839;DHT22;10580;51.092;6.828;2022-12-17T11:23:56;-2.90;99.90
20839;DHT22;10580;51.092;6.828;2022-12-17T11:26:43;-2.90;99.90
20839;DHT22;10580;51.092;6.828;2022-12-17T11:29:42;-2.90;99.90
20839;DHT22;10580;51.092;6.828;2022-12-17T11:32:32;-2.90;99.90
20839;DHT22;10580;51.092;6.828;2022-12-17T11:38:37;-3.00;99.90
20839;DHT22;10580;51.092;6.828;2022-12-17T11:47:56;-3.00;99.90
20839;DHT22;10580;51.092;6.828;2022-12-17T11:57:23;-3.00;99.90
20839;DHT22;10580;51.092;6.828;2022-12-17T12:00:35;-3.00;99.90
20839;DHT22;10580;51.092;6.828;2022-12-17T12:09:43;-2.90;99.90
20839;DHT22;10580;51.092;6.828;2022-12-17T12:12:49;-2.90;99.90
20839;DHT22;10580;51.092;6.828;2022-12-17T12:16:04;-2.90;99.90
20839;DHT22;10580;51.092;6.828;2022-12-17T12:34:37;-3.10;99.90
20839;DHT22;10580;51.092;6.828;2022-12-17T12:37:23;-3.00;99.90
20839;DHT22;10580;51.092;6.828;2022-12-17T12:40:21;-3.10;99.90
20839;DHT22;10580;51.092;6.828;2022-12-17T12:46:20;-2.90;99.90
20839;DHT22;10580;51.092;6.828;2022-12-17T12:52:16;-3.00;99.90
20839;DHT22;10580;51.092;6.828;2022-12-17T12:55:01;-2.90;99.90
20839;DHT22;10580;51.092;6.828;2022-12-17T13:19:44;-2.50;99.90
20839;DHT22;10580;51.092;6.828;2022-12-17T13:24:45;-2.50;99.90
20839;DHT22;10580;51.092;6.828;2022-12-17T13:29:54;-2.40;99.90
20839;DHT22;10580;51.092;6.828;2022-12-17T13:32:33;-2.40;99.90
20839;DHT22;10580;51.092;6.828;2022-12-17T13:40:42;-2.50;99.90
20839;DHT22;10580;51.092;6.828;2022-12-17T13:43:19;-2.60;99.90
20839;DHT22;10580;51.092;6.828;2022-12-17T13:45:45;-2.50;99.90
20839;DHT22;10580;51.092;6.828;2022-12-17T13:48:21;-2.30;99.90
20839;DHT22;10580;51.092;6.828;2022-12-17T13:51:02;-2.30;99.90
20839;DHT22;10580;51.092;6.828;2022-12-17T13:53:29;-2.20;99.90
20839;DHT22;10580;51.092;6.828;2022-12-17T13:55:58;-2.20;99.90
20839;DHT22;10580;51.092;6.828;2022-12-17T13:58:31;-2.20;99.90
20839;DHT22;10580;51.092;6.828;2022-12-17T14:01:09;-2.30;99.90
20839;DHT22;10580;51.092;6.828;2022-12-17T14:03:36;-2.40;99.90
20839;DHT22;10580;51.092;6.828;2022-12-17T14:06:03;-2.40;99.90
20839;DHT22;10580;51.092;6.828;2022-12-17T14:08:32;-2.50;99.90
20839;DHT22;10580;51.092;6.828;2022-12-17T14:10:59;-2.50;99.90
20839;DHT22;10580;51.092;6.828;2022-12-17T14:13:46;-2.60;99.90
20839;DHT22;10580;51.092;6.828;2022-12-17T14:16:16;-2.60;99.90
20839;DHT22;10580;51.092;6.828;2022-12-17T14:18:47;-2.60;99.90
20839;DHT22;10580;51.092;6.828;2022-12-17T14:21:13;-2.50;99.90
20839;DHT22;10580;51.092;6.828;2022-12-17T14:23:40;-2.10;99.90
20839;DHT22;10580;51.092;6.828;2022-12-17T14:26:10;-1.60;99.90
20839;DHT22;10580;51.092;6.828;2022-12-17T14:28:48;-1.50;99.90
20839;DHT22;10580;51.092;6.828;2022-12-17T14:31:23;-1.60;99.90
20839;DHT22;10580;51.092;6.828;2022-12-17T14:34:04;-1.70;99.90
20839;DHT22;10580;51.092;6.828;2022-12-17T14:36:35;-1.90;99.90
20839;DHT22;10580;51.092;6.828;2022-12-17T14:39:05;-2.10;99.90
20839;DHT22;10580;51.092;6.828;2022-12-17T14:41:39;-2.20;99.90
20839;DHT22;10580;51.092;6.828;2022-12-17T14:44:25;-2.30;99.90
20839;DHT22;10580;51.092;6.828;2022-12-17T14:47:25;-2.30;99.90
20839;DHT22;10580;51.092;6.828;2022-12-17T14:52:37;-2.50;99.90
20839;DHT22;10580;51.092;6.828;2022-12-17T15:00:48;-2.60;99.90
20839;DHT22;10580;51.092;6.828;2022-12-17T15:03:19;-2.60;99.90
20839;DHT22;10580;51.092;6.828;2022-12-17T15:05:50;-2.70;99.90
20839;DHT22;10580;51.092;6.828;2022-12-17T15:08:16;-2.70;99.90
20839;DHT22;10580;51.092;6.828;2022-12-17T15:10:41;-2.80;99.90
20839;DHT22;10580;51.092;6.828;2022-12-17T15:13:07;-2.80;99.90
20839;DHT22;10580;51.092;6.828;2022-12-17T15:15:32;-2.80;99.90
20839;DHT22;10580;51.092;6.828;2022-12-17T15:17:58;-2.80;99.90
20839;DHT22;10580;51.092;6.828;2022-12-17T15:20:23;-2.80;99.90
20839;DHT22;10580;51.092;6.828;2022-12-17T15:22:49;-2.80;99.90
20839;DHT22;10580;51.092;6.828;2022-12-17T15:25:16;-2.80;99.90
20839;DHT22;10580;51.092;6.828;2022-12-17T15:27:43;-2.80;99.90
20839;DHT22;10580;51.092;6.828;2022-12-17T15:30:12;-2.90;99.90
20839;DHT22;10580;51.092;6.828;2022-12-17T15:32:38;-2.90;99.90
20839;DHT22;10580;51.092;6.828;2022-12-17T15:35:04;-2.90;99.90
20839;DHT22;10580;51.092;6.828;2022-12-17T15:37:30;-3.00;99.90
20839;DHT22;10580;51.092;6.828;2022-12-17T15:39:55;-3.00;99.90
20839;DHT22;10580;51.092;6.828;2022-12-17T15:42:21;-3.00;99.90
20839;DHT22;10580;51.092;6.828;2022-12-17T15:45:08;-3.00;99.90
20839;DHT22;10580;51.092;6.828;2022-12-17T15:47:34;-3.00;99.90
20839;DHT22;10580;51.092;6.828;2022-12-17T15:50:00;-3.00;99.90
20839;DHT22;10580;51.092;6.828;2022-12-17T15:52:25;-3.10;99.90
20839;DHT22;10580;51.092;6.828;2022-12-17T15:54:58;-3.10;99.90
20839;DHT22;10580;51.092;6.828;2022-12-17T15:57:42;-3.10;99.90
20839;DHT22;10580;51.092;6.828;2022-12-17T16:00:08;-3.10;99.90
20839;DHT22;10580;51.092;6.828;2022-12-17T16:02:34;-3.10;99.90
20839;DHT22;10580;51.092;6.828;2022-12-17T16:05:00;-3.20;99.90
20839;DHT22;10580;51.092;6.828;2022-12-17T16:07:26;-3.20;99.90
20839;DHT22;10580;51.092;6.828;2022-12-17T16:09:51;-3.20;99.90
20839;DHT22;10580;51.092;6.828;2022-12-17T16:12:17;-3.20;99.90
20839;DHT22;10580;51.092;6.828;2022-12-17T16:14:43;-3.20;99.90
20839;DHT22;10580;51.092;6.828;2022-12-17T16:17:09;-3.20;99.90
20839;DHT22;10580;51.092;6.828;2022-12-17T16:19:43;-3.30;99.90
20839;DHT22;10580;51.092;6.828;2022-12-17T16:22:27;-3.30;99.90
20839;DHT22;10580;51.092;6.828;2022-12-17T16:24:58;-3.30;99.90
20839;DHT22;10580;51.092;6.828;2022-12-17T16:27:24;-3.30;99.90
20839;DHT22;10580;51.092;6.828;2022-12-17T16:29:50;-3.30;99.90
20839;DHT22;10580;51.092;6.828;2022-12-17T16:32:16;-3.40;99.90
20839;DHT22;10580;51.092;6.828;2022-12-17T16:34:42;-3.40;99.90
20839;DHT22;10580;51.092;6.828;2022-12-17T16:37:08;-3.40;99.90
20839;DHT22;10580;51.092;6.828;2022-12-17T16:39:34;-3.40;99.90
20839;DHT22;10580;51.092;6.828;2022-12-17T16:42:00;-3.30;99.90
20839;DHT22;10580;51.092;6.828;2022-12-17T16:44:25;-3.30;99.90
20839;DHT22;10580;51.092;6.828;2022-12-17T16:46:51;-3.30;99.90
20839;DHT22;10580;51.092;6.828;2022-12-17T16:49:21;-3.30;99.90
20839;DHT22;10580;51.092;6.828;2022-12-17T16:51:51;-3.30;99.90
20839;DHT22;10580;51.092;6.828;2022-12-17T16:54:20;-3.30;99.90
20839;DHT22;10580;51.092;6.828;2022-12-17T16:56:55;-3.30;99.90
20839;DHT22;10580;51.092;6.828;2022-12-17T16:59:35;-3.30;99.90
20839;DHT22;10580;51.092;6.828;2022-12-17T17:02:03;-3.30;99.90
20839;DHT22;10580;51.092;6.828;2022-12-17T17:04:29;-3.30;99.90
20839;DHT22;10580;51.092;6.828;2022-12-17T17:06:57;-3.30;99.90
20839;DHT22;10580;51.092;6.828;2022-12-17T17:09:38;-3.30;99.90
20839;DHT22;10580;51.092;6.828;2022-12-17T17:12:11;-3.30;99.90
20839;DHT22;10580;51.092;6.828;2022-12-17T17:14:37;-3.30;99.90
20839;DHT22;10580;51.092;6.828;2022-12-17T17:17:11;-3.30;99.90
20839;DHT22;10580;51.092;6.828;2022-12-17T17:19:40;-3.40;99.90
20839;DHT22;10580;51.092;6.828;2022-12-17T17:22:05;-3.40;99.90
20839;DHT22;10580;51.092;6.828;2022-12-17T17:24:31;-3.40;99.90
20839;DHT22;10580;51.092;6.828;2022-12-17T17:26:57;-3.40;99.90
20839;DHT22;10580;51.092;6.828;2022-12-17T17:29:22;-3.40;99.90
20839;DHT22;10580;51.092;6.828;2022-12-17T17:31:55;-3.40;99.90
20839;DHT22;10580;51.092;6.828;2022-12-17T17:34:23;-3.40;99.90
20839;DHT22;10580;51.092;6.828;2022-12-17T17:36:49;-3.50;99.90
20839;DHT22;10580;51.092;6.828;2022-12-17T17:39:14;-3.50;99.90
20839;DHT22;10580;51.092;6.828;2022-12-17T17:41:53;-3.50;99.90
20839;DHT22;10580;51.092;6.828;2022-12-17T17:44:19;-3.50;99.90
20839;DHT22;10580;51.092;6.828;2022-12-17T17:46:47;-3.40;99.90
20839;DHT22;10580;51.092;6.828;2022-12-17T17:49:20;-3.40;99.90
20839;DHT22;10580;51.092;6.828;2022-12-17T17:51:46;-3.50;99.90
20839;DHT22;10580;51.092;6.828;2022-12-17T17:54:12;-3.50;99.90
20839;DHT22;10580;51.092;6.828;2022-12-17T17:56:41;-3.50;99.90
20839;DHT22;10580;51.092;6.828;2022-12-17T17:59:12;-3.50;99.90
20839;DHT22;10580;51.092;6.828;2022-12-17T18:01:41;-3.50;99.90
20839;DHT22;10580;51.092;6.828;2022-12-17T18:04:11;-3.50;99.90
20839;DHT22;10580;51.092;6.828;2022-12-17T18:06:39;-3.50;99.90
20839;DHT22;10580;51.092;6.828;2022-12-17T18:09:06;-3.50;99.90
20839;DHT22;10580;51.092;6.828;2022-12-17T18:11:32;-3.50;99.90
20839;DHT22;10580;51.092;6.828;2022-12-17T18:13:59;-3.50;99.90
20839;DHT22;10580;51.092;6.828;2022-12-17T18:16:35;-3.60;99.90
20839;DHT22;10580;51.092;6.828;2022-12-17T18:19:20;-3.60;99.90
20839;DHT22;10580;51.092;6.828;2022-12-17T18:21:47;-3.60;99.90
20839;DHT22;10580;51.092;6.828;2022-12-17T18:26:41;-3.60;99.90
20839;DHT22;10580;51.092;6.828;2022-12-17T18:29:08;-3.70;99.90
20839;DHT22;10580;51.092;6.828;2022-12-17T18:31:37;-3.70;99.90
20839;DHT22;10580;51.092;6.828;2022-12-17T18:34:04;-3.70;99.90
20839;DHT22;10580;51.092;6.828;2022-12-17T18:36:35;-3.70;99.90
20839;DHT22;10580;51.092;6.828;2022-12-17T18:39:16;-3.70;99.90
20839;DHT22;10580;51.092;6.828;2022-12-17T18:41:52;-3.70;99.90
20839;DHT22;10580;51.092;6.828;2022-12-17T18:44:40;-3.70;99.90
20839;DHT22;10580;51.092;6.828;2022-12-17T18:47:30;-3.70;99.90